createdAt,value
2023-03-24T00:02:38.584Z,14.77
2023-03-24T00:05:44.883Z,15.60
2023-03-24T00:08:48.406Z,16.15
2023-03-24T00:11:51.236Z,19.65
2023-03-24T00:14:54.602Z,17.65
2023-03-24T00:17:58.476Z,14.27
2023-03-24T00:21:01.085Z,18.62
2023-03-24T00:24:05.083Z,14.80
2023-03-24T00:27:08.276Z,15.27
2023-03-24T00:30:12.918Z,15.57
2023-03-24T00:33:15.538Z,25.00
2023-03-24T00:36:21.178Z,16.50
2023-03-24T00:39:24.189Z,15.73
2023-03-24T00:42:27.164Z,15.45
2023-03-24T00:45:34.485Z,17.08
2023-03-24T00:48:38.472Z,16.17
2023-03-24T00:51:42.592Z,19.12
2023-03-24T00:54:46.120Z,15.80
2023-03-24T00:57:51.768Z,18.48
2023-03-24T01:00:57.126Z,13.90
2023-03-24T01:04:00.298Z,15.37
2023-03-24T01:07:03.435Z,16.25
2023-03-24T01:10:06.270Z,16.52
2023-03-24T01:13:10.498Z,20.25
2023-03-24T01:16:13.590Z,16.40
2023-03-24T01:19:16.531Z,16.47
2023-03-24T01:22:20.909Z,19.23
2023-03-24T01:25:25.702Z,17.15
2023-03-24T01:28:28.184Z,16.35
2023-03-24T01:31:31.198Z,17.50
2023-03-24T01:34:34.883Z,19.33
2023-03-24T01:37:39.138Z,15.07
2023-03-24T01:40:45.226Z,19.48
2023-03-24T01:43:48.282Z,20.00
2023-03-24T01:46:51.445Z,18.67
2023-03-24T01:49:59.488Z,20.23
2023-03-24T01:53:02.667Z,28.02
2023-03-24T01:56:07.712Z,18.90
2023-03-24T01:59:15.722Z,17.30
2023-03-24T02:02:22.151Z,15.90
2023-03-24T02:05:29.532Z,16.10
2023-03-24T02:09:04.414Z,19.95
2023-03-24T02:12:07.863Z,16.70
2023-03-24T02:15:12.833Z,16.67
2023-03-24T02:18:25.970Z,18.30
2023-03-24T02:21:43.693Z,18.30
2023-03-24T02:25:04.720Z,19.58
2023-03-24T02:28:25.262Z,17.17
2023-03-24T02:32:18.835Z,15.70
2023-03-24T02:35:41.878Z,16.75
2023-03-24T02:39:09.956Z,18.97
2023-03-24T02:42:34.345Z,17.83
2023-03-24T02:45:45.511Z,21.23
2023-03-24T02:49:26.454Z,17.25
2023-03-24T02:52:39.552Z,19.62
2023-03-24T02:56:11.879Z,21.40
2023-03-24T02:59:31.990Z,21.70
2023-03-24T03:02:41.575Z,21.73
2023-03-24T03:05:53.707Z,18.08
2023-03-24T03:08:59.995Z,19.20
2023-03-24T03:12:04.716Z,23.17
2023-03-24T03:15:12.748Z,19.15
2023-03-24T03:18:23.190Z,21.75
2023-03-24T03:21:32.809Z,17.75
2023-03-24T03:24:40.090Z,20.75
2023-03-24T03:27:46.962Z,29.37
2023-03-24T03:30:59.719Z,19.15
2023-03-24T03:34:40.986Z,21.35
2023-03-24T03:37:54.033Z,19.08
2023-03-24T03:41:00.603Z,23.40
2023-03-24T03:44:03.718Z,18.57
2023-03-24T03:47:06.866Z,20.60
2023-03-24T03:50:11.161Z,18.92
2023-03-24T03:53:17.347Z,17.60
2023-03-24T03:56:24.221Z,19.05
2023-03-24T03:59:34.711Z,17.40
2023-03-24T04:02:40.746Z,20.20
2023-03-24T04:06:04.124Z,19.52
2023-03-24T04:09:24.696Z,23.52
2023-03-24T04:13:00.694Z,17.70
2023-03-24T04:16:22.706Z,17.77
2023-03-24T04:19:43.916Z,19.42
2023-03-24T04:23:09.555Z,18.95
2023-03-24T04:26:55.791Z,17.58
2023-03-24T04:30:33.023Z,17.62
2023-03-24T04:33:52.612Z,21.23
2023-03-24T04:37:08.448Z,19.67
2023-03-24T04:40:15.016Z,18.80
2023-03-24T04:43:21.878Z,19.05
2023-03-24T04:46:25.534Z,21.17
2023-03-24T04:49:28.865Z,22.53
2023-03-24T04:52:31.882Z,22.50
2023-03-24T04:55:57.256Z,22.27
2023-03-24T04:59:02.267Z,19.83
2023-03-24T05:02:05.065Z,20.17
2023-03-24T05:05:08.599Z,21.70
2023-03-24T05:08:12.752Z,21.23
2023-03-24T05:11:16.345Z,21.27
2023-03-24T05:14:21.446Z,21.77
2023-03-24T05:17:24.255Z,22.65
2023-03-24T05:20:27.157Z,23.03
2023-03-24T05:23:30.792Z,19.70
2023-03-24T05:26:33.506Z,21.83
2023-03-24T05:29:37.547Z,22.95
2023-03-24T05:32:40.518Z,24.15
2023-03-24T05:35:43.931Z,21.83
2023-03-24T05:38:46.644Z,20.52
2023-03-24T05:41:49.328Z,21.35
2023-03-24T05:44:51.720Z,22.15
2023-03-24T05:47:55.859Z,29.77
2023-03-24T05:50:59.293Z,24.07
2023-03-24T05:54:02.401Z,25.23
2023-03-24T05:57:09.235Z,22.87
2023-03-24T06:00:17.377Z,20.12
2023-03-24T06:03:21.292Z,20.45
2023-03-24T06:06:26.342Z,21.43
2023-03-24T06:09:32.785Z,21.90
2023-03-24T06:12:35.611Z,25.40
2023-03-24T06:15:41.660Z,27.85
2023-03-24T06:18:53.183Z,25.10
2023-03-24T06:22:00.430Z,17.90
2023-03-24T06:25:04.343Z,26.08
2023-03-24T06:28:12.267Z,20.05
2023-03-24T06:31:20.482Z,20.23
2023-03-24T06:34:25.636Z,20.85
2023-03-24T06:37:29.603Z,21.37
2023-03-24T06:40:33.453Z,19.83
2023-03-24T06:43:36.270Z,20.83
2023-03-24T06:46:40.579Z,21.67
2023-03-24T06:49:43.329Z,22.62
2023-03-24T06:52:46.160Z,23.93
2023-03-24T06:55:49.848Z,22.58
2023-03-24T06:58:53.948Z,23.15
2023-03-24T07:02:01.326Z,24.05
2023-03-24T07:05:07.720Z,25.55
2023-03-24T07:11:20.994Z,21.00
2023-03-24T07:14:26.297Z,21.80
2023-03-24T07:17:29.384Z,19.85
2023-03-24T07:20:32.558Z,21.45
2023-03-24T07:23:36.226Z,19.00
2023-03-24T07:26:38.881Z,22.17
2023-03-24T07:29:41.804Z,21.70
2023-03-24T07:32:44.941Z,19.12
2023-03-24T07:35:48.230Z,19.12
2023-03-24T07:38:51.267Z,20.33
2023-03-24T07:41:54.747Z,19.55
2023-03-24T07:44:58.117Z,17.83
2023-03-24T07:48:02.309Z,20.95
2023-03-24T07:51:05.840Z,19.77
2023-03-24T07:54:11.442Z,21.17
2023-03-24T07:57:14.625Z,21.58
2023-03-24T08:00:19.894Z,17.27
2023-03-24T08:03:25.957Z,19.73
2023-03-24T08:06:34.897Z,17.35
2023-03-24T08:09:37.954Z,18.23
2023-03-24T08:12:41.204Z,17.33
2023-03-24T08:15:44.210Z,20.58
2023-03-24T08:18:46.698Z,20.17
2023-03-24T08:21:49.421Z,15.75
2023-03-24T08:24:51.948Z,17.50
2023-03-24T08:27:55.080Z,17.70
2023-03-24T08:30:57.647Z,22.27
2023-03-24T08:34:00.738Z,15.15
2023-03-24T08:37:03.353Z,18.55
2023-03-24T08:40:06.698Z,14.23
2023-03-24T08:43:14.644Z,15.27
2023-03-24T08:46:17.447Z,20.25
2023-03-24T08:49:19.955Z,18.05
2023-03-24T08:52:22.656Z,14.73
2023-03-24T08:55:25.643Z,16.17
2023-03-24T08:58:28.957Z,21.83
2023-03-24T09:01:31.665Z,32.20
2023-03-24T09:04:36.706Z,20.05
2023-03-24T09:07:39.426Z,14.57
2023-03-24T09:10:43.920Z,15.20
2023-03-24T09:13:47.783Z,10.82
2023-03-24T09:16:51.443Z,14.32
2023-03-24T09:19:54.415Z,11.35
2023-03-24T09:22:57.309Z,20.02
2023-03-24T09:26:00.882Z,12.30
2023-03-24T09:29:04.447Z,12.63
2023-03-24T09:32:07.448Z,13.35
2023-03-24T09:35:10.821Z,12.13
2023-03-24T09:38:13.492Z,10.63
2023-03-24T09:41:24.813Z,17.87
2023-03-24T09:44:34.538Z,13.25
2023-03-24T09:47:44.446Z,12.68
2023-03-24T09:50:54.241Z,13.80
2023-03-24T09:54:13.560Z,12.88
2023-03-24T09:57:27.589Z,11.60
2023-03-24T10:00:34.539Z,12.82
2023-03-24T10:03:37.723Z,16.95
2023-03-24T10:06:44.131Z,15.95
2023-03-24T10:09:56.619Z,14.63
2023-03-24T10:13:08.116Z,12.00
2023-03-24T10:16:38.043Z,14.48
2023-03-24T10:19:46.091Z,16.90
2023-03-24T10:23:08.531Z,13.82
2023-03-24T10:26:44.906Z,17.58
2023-03-24T10:29:49.656Z,14.80
2023-03-24T10:32:52.443Z,19.52
2023-03-24T10:35:57.436Z,14.82
2023-03-24T10:39:06.460Z,12.85
2023-03-24T10:42:25.716Z,12.63
2023-03-24T10:45:34.025Z,17.50
2023-03-24T10:48:40.761Z,17.65
2023-03-24T10:51:49.750Z,14.48
2023-03-24T10:54:59.159Z,13.27
2023-03-24T10:58:12.017Z,14.18
2023-03-24T11:01:28.360Z,9.03
2023-03-24T11:04:32.277Z,11.70
2023-03-24T11:07:40.739Z,12.02
2023-03-24T11:10:44.206Z,13.88
2023-03-24T11:13:57.080Z,9.55
2023-03-24T11:17:12.055Z,12.43
2023-03-24T11:20:28.832Z,10.45
2023-03-24T11:23:34.706Z,9.43
2023-03-24T11:26:40.884Z,9.63
2023-03-24T11:29:43.729Z,12.82
2023-03-24T11:32:48.571Z,8.27
2023-03-24T11:35:59.329Z,10.55
2023-03-24T11:39:12.735Z,8.63
2023-03-24T11:42:18.112Z,9.23
2023-03-24T11:45:28.627Z,10.73
2023-03-24T11:48:34.115Z,9.40
2023-03-24T11:51:41.200Z,13.77
2023-03-24T11:54:43.966Z,11.30
2023-03-24T11:58:02.447Z,9.95
2023-03-24T12:01:12.982Z,9.32
2023-03-24T12:04:34.602Z,9.20
2023-03-24T12:07:58.408Z,9.70
2023-03-24T12:11:14.995Z,12.37
2023-03-24T12:14:51.367Z,6.60
2023-03-24T12:18:08.871Z,6.95
2023-03-24T12:21:55.042Z,9.27
2023-03-24T12:25:04.914Z,5.87
2023-03-24T12:28:39.506Z,7.28
2023-03-24T12:32:04.401Z,6.62
2023-03-24T12:35:39.712Z,6.70
2023-03-24T12:39:11.929Z,6.93
2023-03-24T12:42:17.023Z,7.45
2023-03-24T12:45:37.183Z,8.15
2023-03-24T12:48:45.500Z,11.12
2023-03-24T12:51:52.829Z,5.22
2023-03-24T12:55:26.893Z,7.60
2023-03-24T12:58:49.306Z,6.75
2023-03-24T13:01:59.535Z,5.20
2023-03-24T13:05:08.535Z,9.38
2023-03-24T13:08:23.891Z,10.38
2023-03-24T13:11:36.376Z,5.60
2023-03-24T13:15:03.581Z,6.28
2023-03-24T13:18:09.704Z,5.47
2023-03-24T13:21:18.779Z,8.98
2023-03-24T13:24:22.788Z,5.97
2023-03-24T13:27:33.258Z,6.20
2023-03-24T13:30:40.458Z,5.65
2023-03-24T13:33:47.356Z,5.68
2023-03-24T13:36:57.005Z,8.65
2023-03-24T13:40:06.973Z,6.10
2023-03-24T13:43:28.504Z,9.00
2023-03-24T13:46:31.583Z,7.00
2023-03-24T13:49:34.942Z,5.57
2023-03-24T13:52:40.612Z,7.35
2023-03-24T13:55:52.482Z,5.70
2023-03-24T13:59:19.573Z,6.93
2023-03-24T14:02:42.164Z,5.47
2023-03-24T14:05:58.733Z,7.28
2023-03-24T14:09:06.073Z,7.43
2023-03-24T14:12:19.594Z,6.53
2023-03-24T14:15:41.226Z,4.63
2023-03-24T14:18:44.097Z,4.72
2023-03-24T14:21:53.359Z,7.85
2023-03-24T14:25:29.567Z,4.30
2023-03-24T14:28:46.856Z,4.68
2023-03-24T14:32:02.340Z,7.30
2023-03-24T14:35:24.480Z,5.20
2023-03-24T14:38:27.684Z,4.72
2023-03-24T14:41:31.964Z,6.53
2023-03-24T14:44:47.253Z,8.60
2023-03-24T14:47:59.474Z,5.23
2023-03-24T14:51:12.666Z,5.80
2023-03-24T14:54:19.919Z,8.23
2023-03-24T14:57:26.920Z,6.80
2023-03-24T15:00:51.722Z,14.85
2023-03-24T15:04:11.298Z,13.10
2023-03-24T15:07:15.443Z,7.10
2023-03-24T15:10:20.154Z,7.93
2023-03-24T15:13:39.792Z,9.27
2023-03-24T15:17:01.672Z,5.22
2023-03-24T15:20:07.643Z,8.70
2023-03-24T15:23:20.902Z,8.30
2023-03-24T15:26:25.189Z,6.10
2023-03-24T15:29:28.054Z,8.65
2023-03-24T15:32:39.066Z,6.95
2023-03-24T15:35:43.171Z,5.50
2023-03-24T15:38:53.052Z,6.82
2023-03-24T15:41:56.380Z,6.25
2023-03-24T15:45:11.334Z,5.32
2023-03-24T15:48:20.517Z,5.75
2023-03-24T15:51:52.360Z,6.57
2023-03-24T15:55:00.519Z,12.93
2023-03-24T15:58:22.905Z,5.72
2023-03-24T16:01:31.355Z,6.80
2023-03-24T16:04:34.613Z,6.53
2023-03-24T16:07:37.695Z,6.50
2023-03-24T16:10:45.211Z,6.25
2023-03-24T16:13:47.764Z,7.10
2023-03-24T16:16:58.040Z,6.68
2023-03-24T16:20:00.725Z,9.05
2023-03-24T16:23:03.676Z,8.77
2023-03-24T16:26:09.459Z,7.62
2023-03-24T16:29:16.648Z,6.03
2023-03-24T16:32:19.232Z,10.18
2023-03-24T16:35:23.100Z,9.27
2023-03-24T16:38:26.452Z,13.27
2023-03-24T16:41:29.356Z,7.25
2023-03-24T16:44:31.827Z,6.72
2023-03-24T16:47:34.617Z,9.38
2023-03-24T16:50:40.573Z,7.30
2023-03-24T16:53:45.020Z,6.63
2023-03-24T16:56:47.506Z,13.48
2023-03-24T16:59:50.375Z,7.12
2023-03-24T17:02:53.919Z,6.07
2023-03-24T17:05:58.170Z,9.02
2023-03-24T17:09:01.353Z,8.30
2023-03-24T17:12:04.548Z,8.60
2023-03-24T17:15:08.056Z,7.12
2023-03-24T17:18:11.227Z,7.75
2023-03-24T17:21:18.092Z,15.57
2023-03-24T17:24:21.212Z,9.43
2023-03-24T17:27:24.609Z,10.57
2023-03-24T17:30:29.044Z,9.93
2023-03-24T17:33:31.621Z,7.18
2023-03-24T17:36:34.519Z,11.57
2023-03-24T17:39:37.909Z,9.90
2023-03-24T17:42:45.808Z,10.15
2023-03-24T17:45:48.806Z,9.82
2023-03-24T17:48:51.694Z,12.27
2023-03-24T17:51:54.269Z,10.18
2023-03-24T17:54:57.097Z,10.50
2023-03-24T17:57:59.537Z,11.23
2023-03-24T18:01:08.005Z,11.75
2023-03-24T18:04:11.692Z,12.27
2023-03-24T18:07:14.311Z,8.05
2023-03-24T18:10:17.078Z,10.47
2023-03-24T18:13:19.592Z,11.82
2023-03-24T18:16:23.050Z,11.75
2023-03-24T18:19:25.848Z,10.48
2023-03-24T18:22:29.885Z,13.57
2023-03-24T18:25:32.666Z,11.30
2023-03-24T18:28:39.666Z,9.80
2023-03-24T18:31:42.156Z,15.32
2023-03-24T18:34:44.991Z,12.93
2023-03-24T18:37:47.556Z,15.23
2023-03-24T18:41:05.636Z,15.90
2023-03-24T18:44:12.261Z,33.78
2023-03-24T18:47:16.477Z,12.77
2023-03-24T18:50:18.953Z,14.02
2023-03-24T18:53:22.288Z,15.13
2023-03-24T18:56:25.582Z,10.47
2023-03-24T18:59:28.613Z,15.05
2023-03-24T19:02:31.339Z,12.07
2023-03-24T19:05:34.369Z,13.20
2023-03-24T19:08:41.356Z,10.88
2023-03-24T19:11:45.084Z,9.37
2023-03-24T19:14:47.598Z,13.95
2023-03-24T19:17:50.388Z,9.77
2023-03-24T19:20:57.713Z,20.75
2023-03-24T19:24:00.606Z,14.63
2023-03-24T19:27:03.101Z,13.33
2023-03-24T19:30:06.684Z,12.48
2023-03-24T19:33:11.360Z,19.70
2023-03-24T19:36:15.965Z,11.55
2023-03-24T19:39:18.406Z,12.60
2023-03-24T19:42:21.756Z,12.20
2023-03-24T19:45:25.952Z,13.40
2023-03-24T19:48:29.246Z,16.62
2023-03-24T19:51:31.629Z,13.10
2023-03-24T19:54:34.399Z,13.98
2023-03-24T19:57:37.004Z,18.30
2023-03-24T20:00:40.261Z,10.23
2023-03-24T20:03:43.236Z,12.75
2023-03-24T20:06:46.012Z,12.98
2023-03-24T20:09:49.004Z,15.00
2023-03-24T20:12:52.034Z,9.23
2023-03-24T20:15:55.160Z,10.27
2023-03-24T20:18:57.876Z,12.52
2023-03-24T20:22:00.801Z,11.43
2023-03-24T20:25:04.954Z,10.63
2023-03-24T20:28:07.706Z,12.73
2023-03-24T20:31:11.510Z,11.40
2023-03-24T20:34:14.428Z,14.57
2023-03-24T20:37:17.746Z,13.62
2023-03-24T20:40:21.869Z,11.48
2023-03-24T20:43:24.469Z,10.33
2023-03-24T20:46:27.381Z,15.10
2023-03-24T20:49:30.417Z,15.95
2023-03-24T20:52:33.659Z,15.85
2023-03-24T20:55:36.452Z,18.75
2023-03-24T20:58:39.256Z,10.37
2023-03-24T21:01:42.001Z,13.05
2023-03-24T21:04:44.893Z,13.40
2023-03-24T21:07:48.181Z,14.35
2023-03-24T21:10:57.841Z,13.52
2023-03-24T21:14:01.789Z,15.23
2023-03-24T21:17:04.891Z,12.80
2023-03-24T21:20:13.116Z,13.68
2023-03-24T21:23:18.616Z,12.20
2023-03-24T21:26:21.193Z,11.77
2023-03-24T21:29:24.517Z,13.67
2023-03-24T21:32:27.053Z,11.68
2023-03-24T21:35:30.429Z,12.37
2023-03-24T21:38:32.888Z,12.40
2023-03-24T21:41:38.861Z,12.25
2023-03-24T21:44:42.982Z,11.87
2023-03-24T21:47:47.992Z,10.52
2023-03-24T21:50:55.152Z,8.70
2023-03-24T21:53:59.708Z,8.43
2023-03-24T21:57:04.089Z,7.35
2023-03-24T22:00:12.775Z,7.47
2023-03-24T22:03:16.602Z,11.55
2023-03-24T22:06:21.466Z,7.45
2023-03-24T22:09:27.509Z,6.03
2023-03-24T22:12:30.077Z,13.62
2023-03-24T22:15:34.260Z,6.07
2023-03-24T22:18:37.820Z,5.57
2023-03-24T22:21:40.620Z,6.10
2023-03-24T22:24:43.033Z,5.82
2023-03-24T22:27:50.058Z,8.55
2023-03-24T22:31:00.337Z,7.13
2023-03-24T22:34:03.006Z,4.70
2023-03-24T22:37:05.648Z,5.40
2023-03-24T22:40:09.264Z,6.18
2023-03-24T22:43:11.766Z,6.87
2023-03-24T22:46:14.693Z,5.10
2023-03-24T22:49:17.489Z,6.22
2023-03-24T22:52:20.655Z,5.12
2023-03-24T22:55:23.388Z,4.25
2023-03-24T22:58:27.094Z,5.50
2023-03-24T23:01:29.563Z,4.43
2023-03-24T23:04:32.457Z,4.28
2023-03-24T23:07:35.030Z,4.25
2023-03-24T23:10:39.304Z,5.00
2023-03-24T23:13:41.940Z,4.40
2023-03-24T23:16:45.069Z,5.27
2023-03-24T23:19:47.680Z,4.43
2023-03-24T23:22:51.249Z,6.10
2023-03-24T23:25:53.989Z,4.15
2023-03-24T23:28:57.490Z,4.70
2023-03-24T23:31:59.913Z,4.60
2023-03-24T23:35:04.036Z,4.93
2023-03-24T23:38:06.936Z,4.70
2023-03-24T23:41:09.793Z,4.95
2023-03-24T23:44:12.164Z,5.70
2023-03-24T23:47:15.581Z,4.13
2023-03-24T23:50:19.452Z,4.32
2023-03-24T23:53:22.343Z,6.28
2023-03-24T23:56:24.717Z,4.57
2023-03-24T23:59:27.936Z,3.95
